Time;durP1;ratioP1;P1;durP2;ratioP2;P2;SDS_P1;SDS_P2;PMS_P1;PMS_P2;Temp;Humidity;BMP_temperature;BMP_pressure;BME280_temperature;BME280_humidity;BME280_pressure;Samples;Min_cycle;Max_cycle;Signal;HPM_P1;HPM_P2
2022/05/01 00:01:15;;;;;;;14.02;8.25;;;;;;;8.01;100.00;98097.97;5004197;28;20342;-72
2022/05/01 00:03:43;;;;;;;17.40;9.13;;;;;;;8.01;100.00;98095.38;5004652;28;20115;-71
2022/05/01 00:06:11;;;;;;;11.75;9.00;;;;;;;8.02;100.00;98089.31;4988641;28;20093;-70
2022/05/01 00:08:41;;;;;;;12.25;8.55;;;;;;;8.06;100.00;98095.25;5001364;28;20187;-70
2022/05/01 00:11:09;;;;;;;12.60;8.20;;;;;;;8.12;100.00;98097.72;4988209;28;20403;-72
2022/05/01 00:13:41;;;;;;;10.98;7.63;;;;;;;8.11;100.00;98094.25;5000371;28;20129;-70
2022/05/01 00:16:08;;;;;;;16.55;8.85;;;;;;;8.18;100.00;98100.13;5014889;28;20472;-71
2022/05/01 00:18:36;;;;;;;14.93;9.43;;;;;;;8.20;100.00;98095.75;5000466;28;20079;-71
2022/05/01 00:21:04;;;;;;;14.95;9.52;;;;;;;8.27;100.00;98094.72;4990532;28;20427;-72
2022/05/01 00:23:32;;;;;;;17.00;9.18;;;;;;;8.27;100.00;98092.13;5001159;28;20159;-72
2022/05/01 00:26:01;;;;;;;14.65;9.48;;;;;;;8.32;100.00;98081.66;5000682;28;20524;-70
2022/05/01 00:28:29;;;;;;;13.68;8.95;;;;;;;8.34;100.00;98083.31;5004160;28;20534;-70
2022/05/01 00:30:57;;;;;;;15.50;8.60;;;;;;;8.24;100.00;98086.22;5004979;28;20120;-72
2022/05/01 00:36:25;;;;;;;11.35;7.63;;;;;;;8.29;100.00;98080.03;5003318;28;20144;-71
2022/05/01 00:39:06;;;;;;;13.82;7.82;;;;;;;8.39;100.00;98072.88;5003635;28;21485;-72
2022/05/01 00:41:36;;;;;;;15.43;8.30;;;;;;;8.38;100.00;98074.59;4982739;28;20050;-73
2022/05/01 00:44:17;;;;;;;10.32;7.50;;;;;;;8.36;100.00;98075.53;4996758;28;20137;-70
2022/05/01 00:46:50;;;;;;;11.57;7.35;;;;;;;8.30;100.00;98086.03;5000604;28;20054;-70
2022/05/01 00:49:25;;;;;;;15.32;9.20;;;;;;;8.25;100.00;98082.72;5002659;28;20124;-69
2022/05/01 00:52:05;;;;;;;13.55;8.45;;;;;;;8.09;100.00;98084.84;4996867;28;20053;-70
2022/05/01 00:54:33;;;;;;;12.35;8.60;;;;;;;8.01;100.00;98092.78;5000676;28;20769;-70
2022/05/01 00:57:05;;;;;;;11.32;8.85;;;;;;;7.89;100.00;98088.75;5002048;28;20415;-69
2022/05/01 00:59:35;;;;;;;11.73;8.32;;;;;;;7.89;100.00;98090.47;4969379;28;20141;-69
2022/05/01 01:02:03;;;;;;;10.32;6.93;;;;;;;7.81;100.00;98101.00;4999148;28;20045;-70
2022/05/01 01:04:31;;;;;;;12.55;7.72;;;;;;;7.73;100.00;98102.91;5015762;28;20396;-70
2022/05/01 01:06:58;;;;;;;11.98;8.32;;;;;;;7.66;100.00;98102.22;4982710;28;20129;-72
2022/05/01 01:09:26;;;;;;;13.05;8.70;;;;;;;7.66;100.00;98096.19;5003370;28;20077;-71
2022/05/01 01:14:42;;;;;;;12.57;10.10;;;;;;;7.49;100.00;98094.81;5002142;28;20049;-70
2022/05/01 01:17:10;;;;;;;13.85;10.40;;;;;;;7.58;100.00;98100.69;5000948;28;20129;-68
2022/05/01 01:19:38;;;;;;;14.20;9.38;;;;;;;7.30;100.00;98091.78;4997866;28;20456;-71
2022/05/01 01:22:56;;;;;;;16.00;10.15;;;;;;;7.34;100.00;98084.81;4988658;28;20624;-72
2022/05/01 01:25:27;;;;;;;14.18;9.95;;;8.50;99.90;;;7.05;100.00;98088.88;4999974;28;20058;-71
2022/05/01 01:27:59;;;;;;;13.10;10.68;;;8.30;99.90;;;7.01;100.00;98086.38;5000468;28;20154;-73
2022/05/01 01:33:13;;;;;;;15.10;11.20;;;8.10;99.90;;;6.86;100.00;98093.53;5006395;28;20136;-72
2022/05/01 01:35:41;;;;;;;14.07;11.18;;;8.00;99.90;;;6.71;100.00;98091.25;5001351;28;20661;-72
2022/05/01 01:38:09;;;;;;;17.00;11.38;;;7.90;99.90;;;6.68;100.00;98091.31;4972214;28;20042;-72
2022/05/01 01:40:53;;;;;;;18.42;12.05;;;7.80;99.90;;;6.62;100.00;98094.88;4986391;28;20073;-72
2022/05/01 01:43:28;;;;;;;15.98;10.20;;;7.70;99.90;;;6.56;100.00;98088.97;5001975;28;20520;-71
2022/05/01 01:45:58;;;;;;;16.45;10.75;;;7.60;99.90;;;6.36;100.00;98099.63;5004790;28;20093;-71
2022/05/01 01:48:25;;;;;;;19.35;11.85;;;7.50;99.90;;;6.32;100.00;98098.84;5003728;28;20158;-70
2022/05/01 01:51:03;;;;;;;15.63;10.98;;;7.50;99.90;;;6.37;100.00;98106.50;5001386;28;20056;-72
2022/05/01 01:53:33;;;;;;;12.48;10.10;;;7.40;99.90;;;6.43;100.00;98096.94;4998095;28;20054;-72
2022/05/01 01:56:01;;;;;;;13.82;10.48;;;7.50;99.90;;;6.30;100.00;98097.19;5016543;28;20140;-73
2022/05/01 01:58:29;;;;;;;13.27;11.23;;;7.50;99.90;;;6.14;100.00;98094.84;5003045;28;20058;-71
2022/05/01 02:00:59;;;;;;;17.23;11.07;;;7.30;99.90;;;6.05;100.00;98097.56;4984577;28;20065;-71
2022/05/01 02:03:27;;;;;;;15.85;11.50;;;7.20;99.90;;;6.06;100.00;98099.25;5006982;28;20089;-71
2022/05/01 02:05:54;;;;;;;19.55;11.90;;;7.20;99.90;;;5.98;100.00;98104.56;4998788;28;20046;-72
2022/05/01 02:08:22;;;;;;;15.70;12.13;;;7.10;99.90;;;5.95;100.00;98101.16;5001072;28;20173;-72
2022/05/01 02:10:48;;;;;;;16.92;12.20;;;7.10;99.90;;;5.99;100.00;98100.25;5001701;28;20129;-71
2022/05/01 02:13:16;;;;;;;17.98;11.45;;;7.00;99.90;;;5.93;100.00;98095.13;4988266;28;20205;-72
2022/05/01 02:15:45;;;;;;;15.02;11.45;;;7.00;99.90;;;5.88;100.00;98087.47;5003283;28;20136;-72
2022/05/01 02:18:12;;;;;;;12.88;10.80;;;7.00;99.90;;;5.79;100.00;98080.78;4982278;28;20120;-71
2022/05/01 02:23:25;;;;;;;12.95;10.02;;;6.80;99.90;;;5.63;100.00;98082.72;4983435;28;20057;-71
2022/05/01 02:25:52;;;;;;;13.43;10.13;;;6.70;99.90;;;5.61;100.00;98086.19;5000624;28;20437;-71
2022/05/01 02:28:26;;;;;;;13.20;10.63;;;6.70;99.90;;;5.63;100.00;98087.00;5000223;28;20439;-71
2022/05/01 02:30:53;;;;;;;16.83;12.15;;;6.70;99.90;;;5.62;100.00;98081.00;5002800;28;20104;-71
2022/05/01 02:33:20;;;;;;;14.93;11.32;;;6.60;99.90;;;5.67;100.00;98080.94;5000888;28;20136;-71
2022/05/01 02:35:48;;;;;;;12.80;10.63;;;6.60;99.90;;;5.63;100.00;98082.72;4999510;28;20471;-71
2022/05/01 02:38:15;;;;;;;13.65;10.07;;;6.70;99.90;;;5.59;100.00;98083.66;4997029;28;20564;-71
2022/05/01 02:40:42;;;;;;;14.68;9.32;;;6.70;99.90;;;5.66;100.00;98077.53;4999035;28;20091;-70
2022/05/01 02:43:09;;;;;;;13.60;9.70;;;6.70;99.90;;;5.74;100.00;98073.97;4995957;28;20536;-72
2022/05/01 02:45:38;;;;;;;9.02;7.82;;;6.60;99.90;;;5.92;100.00;98068.53;4999137;28;20049;-72
2022/05/01 02:48:05;;;;;;;11.15;8.18;;;6.70;99.90;;;5.93;100.00;98059.06;5004351;28;20053;-71
2022/05/01 02:50:32;;;;;;;10.90;7.50;;;6.60;99.90;;;5.92;100.00;98067.69;5004544;28;20113;-71
2022/05/01 02:52:59;;;;;;;13.18;8.77;;;6.60;99.90;;;5.95;100.00;98065.94;5002427;28;20146;-71
2022/05/01 02:55:26;;;;;;;13.13;8.45;;;6.70;99.90;;;6.10;100.00;98070.00;5017693;28;20080;-71
2022/05/01 02:57:54;;;;;;;13.38;10.15;;;6.80;99.90;;;6.10;100.00;98064.00;5001695;28;20146;-71
2022/05/01 03:00:22;;;;;;;14.05;10.52;;;6.90;99.90;;;6.01;100.00;98070.16;4989090;28;20069;-71
2022/05/01 03:02:49;;;;;;;16.13;11.32;;;7.00;99.90;;;6.03;100.00;98066.66;5005862;28;20148;-72
2022/05/01 03:05:17;;;;;;;17.10;11.75;;;7.00;99.90;;;6.06;100.00;98070.91;5002213;28;20149;-72
2022/05/01 03:07:44;;;;;;;16.20;10.77;;;7.00;99.90;;;6.01;100.00;98067.56;5006597;28;20081;-71
2022/05/01 03:10:11;;;;;;;11.98;9.98;;;7.10;99.90;;;6.07;100.00;98064.91;5004131;28;20138;-69
2022/05/01 03:12:37;;;;;;;16.67;11.27;;;7.00;99.90;;;6.12;100.00;98073.41;5004830;28;20046;-72
2022/05/01 03:15:08;;;;;;;12.50;10.38;;;7.10;99.90;;;6.20;100.00;98068.97;5005669;28;20047;-71
2022/05/01 03:23:07;;;;;;;15.55;11.88;;;7.30;99.90;;;6.45;100.00;98071.97;5004157;28;20465;-71
2022/05/01 03:25:34;;;;;;;17.50;12.82;;;7.40;99.90;;;6.57;100.00;98063.16;5001294;28;20579;-71
2022/05/01 03:28:01;;;;;;;16.08;11.27;;;7.60;99.90;;;6.62;100.00;98057.91;5000906;28;20487;-72
2022/05/01 03:30:28;;;;;;;14.55;10.90;;;7.70;99.90;;;6.67;100.00;98066.41;5001014;28;20092;-71
2022/05/01 03:32:55;;;;;;;15.70;10.90;;;7.70;99.90;;;6.69;100.00;98062.06;5001746;28;20061;-72
2022/05/01 03:35:23;;;;;;;13.98;10.82;;;7.70;99.90;;;6.73;100.00;98063.72;5005871;28;20100;-71
2022/05/01 03:37:50;;;;;;;11.90;10.02;;;7.70;99.90;;;6.65;100.00;98061.25;5006378;28;20104;-71
2022/05/01 03:40:18;;;;;;;12.55;9.38;;;7.70;99.90;;;6.77;100.00;98057.59;5006138;28;20124;-72
2022/05/01 03:42:45;;;;;;;12.70;9.07;;;7.70;99.90;;;6.72;100.00;98058.56;5004515;28;20071;-72
2022/05/01 03:45:13;;;;;;;11.07;9.45;;;7.70;99.90;;;6.76;100.00;98053.31;5022303;28;20137;-72
2022/05/01 03:47:40;;;;;;;13.65;10.65;;;7.70;99.90;;;6.75;100.00;98055.91;5006158;28;20204;-73
2022/05/01 03:50:08;;;;;;;12.48;9.73;;;7.70;99.90;;;6.71;100.00;98062.88;5006440;28;20077;-71
2022/05/01 03:52:35;;;;;;;17.45;11.48;;;7.70;99.90;;;6.75;100.00;98059.38;5002243;28;20133;-71
2022/05/01 03:55:02;;;;;;;14.98;10.20;;;7.70;99.90;;;6.79;100.00;98057.56;5005514;28;20149;-73
2022/05/01 03:57:35;;;;;;;14.10;10.05;;;7.80;99.90;;;6.73;100.00;98066.28;5003206;28;20396;-71
2022/05/01 04:00:02;;;;;;;22.17;14.13;;;7.80;99.90;;;6.76;100.00;98070.53;5003999;28;20536;-72
2022/05/01 04:02:29;;;;;;;18.23;13.38;;;7.80;99.90;;;6.85;100.00;98057.47;5008437;28;20046;-72
2022/05/01 04:04:57;;;;;;;16.10;12.00;;;7.90;99.90;;;6.98;100.00;98055.47;5003541;28;20428;-72
2022/05/01 04:07:24;;;;;;;17.30;13.05;;;7.90;99.90;;;6.99;100.00;98059.75;5002116;28;20089;-72
2022/05/01 04:09:51;;;;;;;18.50;12.25;;;7.90;99.90;;;7.00;100.00;98057.16;5005587;28;20050;-70
2022/05/01 04:12:19;;;;;;;20.05;12.18;;;7.90;99.90;;;7.02;100.00;98054.53;4988764;28;20053;-71
2022/05/01 04:14:46;;;;;;;16.95;11.38;;;8.00;99.90;;;7.04;100.00;98056.19;5001422;28;20069;-71
2022/05/01 04:17:13;;;;;;;19.65;12.68;;;8.00;99.90;;;7.04;100.00;98060.50;5002462;28;20050;-71
2022/05/01 04:19:40;;;;;;;16.33;12.55;;;8.00;99.90;;;7.01;100.00;98055.41;5016492;28;20084;-71
2022/05/01 04:22:07;;;;;;;18.27;11.38;;;8.00;99.90;;;7.00;100.00;98053.69;5000086;28;20054;-71
2022/05/01 04:24:34;;;;;;;13.25;10.45;;;8.10;99.90;;;7.02;100.00;98054.53;5005206;28;20057;-71
2022/05/01 04:27:04;;;;;;;15.63;10.65;;;8.10;99.90;;;7.14;100.00;98056.88;5005391;28;20046;-72
2022/05/01 04:29:36;;;;;;;16.25;11.07;;;8.20;99.90;;;7.20;100.00;98054.13;5005200;28;20058;-72
2022/05/01 04:32:05;;;;;;;17.15;11.93;;;8.20;99.90;;;7.18;100.00;98048.16;5005303;28;20149;-72
2022/05/01 04:34:32;;;;;;;13.80;10.82;;;8.10;99.90;;;7.25;100.00;98054.91;4974195;28;20056;-72
2022/05/01 04:36:59;;;;;;;17.40;12.00;;;8.20;99.90;;;7.24;100.00;98050.59;5002331;28;20046;-73
2022/05/01 04:39:27;;;;;;;11.50;9.70;;;8.20;99.90;;;7.40;100.00;98050.28;5004305;28;20128;-72
2022/05/01 04:41:54;;;;;;;14.35;10.02;;;8.20;99.90;;;7.26;100.00;98053.16;5002028;28;20129;-72
2022/05/01 04:44:21;;;;;;;15.07;9.52;;;8.30;99.90;;;7.37;100.00;98053.78;5003103;28;20128;-72
2022/05/01 04:46:49;;;;;;;13.27;10.15;;;8.30;99.90;;;7.43;100.00;98055.38;5002530;28;20575;-71
2022/05/01 04:49:20;;;;;;;14.88;10.27;;;8.40;99.90;;;7.49;100.00;98048.31;4988401;28;20054;-71
2022/05/01 04:51:47;;;;;;;14.10;10.45;;;8.40;99.90;;;7.47;100.00;98051.84;5000913;28;20485;-72
2022/05/01 04:54:14;;;;;;;13.48;11.25;;;8.40;99.90;;;7.42;100.00;98051.09;5002861;28;20610;-72
2022/05/01 04:59:27;;;;;;;16.08;11.20;;;8.50;99.90;;;7.46;100.00;98048.41;4989856;28;20538;-72
2022/05/01 05:01:54;;;;;;;16.90;11.27;;;8.50;99.90;;;7.58;100.00;98052.44;5002383;28;20900;-72
2022/05/01 05:04:22;;;;;;;15.18;10.32;;;8.50;99.90;;;7.69;100.00;98055.63;4986870;28;20052;-72
2022/05/01 05:06:52;;;;;;;14.25;10.18;;;8.50;99.90;;;7.66;100.00;98055.72;4982608;28;20065;-71
2022/05/01 05:12:09;;;;;;;15.98;10.48;;;8.60;99.90;;;7.74;100.00;98060.69;5018395;28;20509;-71
2022/05/01 05:14:38;;;;;;;14.57;11.85;;;8.60;99.90;;;7.66;100.00;98065.16;4968348;28;20053;-71
2022/05/01 05:17:09;;;;;;;16.50;11.25;;;8.60;99.90;;;7.61;100.00;98059.28;5006043;28;20627;-72
2022/05/01 05:19:37;;;;;;;18.63;11.43;;;8.60;99.90;;;7.62;100.00;98066.13;5008100;28;20081;-71
2022/05/01 05:22:04;;;;;;;16.92;11.38;;;8.60;99.90;;;7.70;100.00;98059.06;5003985;28;20129;-71
2022/05/01 05:24:31;;;;;;;15.45;11.18;;;8.70;99.90;;;7.68;100.00;98063.41;5005458;28;20082;-71
2022/05/01 05:26:58;;;;;;;23.13;12.48;;;8.70;99.90;;;7.70;100.00;98064.22;4998692;28;20050;-72
2022/05/01 05:29:25;;;;;;;18.33;11.73;;;8.70;99.90;;;7.75;100.00;98062.38;5002854;28;20128;-72
2022/05/01 05:31:52;;;;;;;16.50;10.70;;;8.70;99.90;;;7.86;100.00;98062.97;5002761;28;20108;-72
2022/05/01 05:34:19;;;;;;;13.07;10.27;;;8.80;99.90;;;8.05;100.00;98060.81;5002385;28;20508;-72
2022/05/01 05:36:47;;;;;;;12.60;9.82;;;8.90;99.90;;;8.28;100.00;98059.34;5004285;28;20132;-72
2022/05/01 05:39:14;;;;;;;16.38;11.55;;;8.90;99.90;;;8.09;100.00;98056.41;5002765;28;20609;-72
2022/05/01 05:41:42;;;;;;;15.48;10.45;;;9.00;99.90;;;8.05;100.00;98057.34;5003134;28;20516;-71
2022/05/01 05:44:10;;;;;;;15.20;11.52;;;9.10;99.90;;;8.22;100.00;98057.78;4985256;28;20132;-71
2022/05/01 05:46:37;;;;;;;15.38;10.27;;;9.10;99.90;;;8.24;100.00;98050.00;5000999;28;20125;-71
2022/05/01 05:49:04;;;;;;;18.88;11.73;;;9.20;99.90;;;7.93;100.00;98054.19;5003264;28;20051;-70
2022/05/01 05:51:31;;;;;;;19.73;11.13;;;9.20;99.90;;;7.96;100.00;98061.88;5003551;28;20137;-71
2022/05/01 05:53:59;;;;;;;21.17;12.68;;;9.20;99.90;;;7.94;100.00;98058.47;5001665;28;20081;-71
2022/05/01 05:56:26;;;;;;;17.75;12.98;;;9.20;99.90;;;7.93;100.00;98061.09;5003462;28;20125;-71
2022/05/01 05:58:53;;;;;;;16.65;11.75;;;9.10;99.90;;;8.15;100.00;98064.00;4996955;28;20095;-72
2022/05/01 06:01:20;;;;;;;15.98;11.35;;;9.20;99.90;;;8.06;100.00;98062.50;4999793;28;20096;-72
2022/05/01 06:03:49;;;;;;;15.57;11.13;;;9.30;99.90;;;8.24;100.00;98057.75;4999502;28;20041;-73
2022/05/01 06:06:17;;;;;;;15.95;10.88;;;9.30;99.90;;;8.26;100.00;98056.81;5001385;28;20078;-71
2022/05/01 06:08:45;;;;;;;14.70;11.27;;;9.40;99.90;;;8.21;100.00;98058.69;5001954;28;20129;-71
2022/05/01 06:11:12;;;;;;;17.05;12.35;;;9.40;99.90;;;8.08;100.00;98063.31;5002712;28;20511;-72
2022/05/01 06:13:39;;;;;;;17.55;12.27;;;9.40;99.90;;;8.43;100.00;98060.75;5001154;28;20050;-72
2022/05/01 06:16:06;;;;;;;18.27;12.93;;;9.50;99.90;;;8.24;100.00;98055.19;4999199;28;20664;-72
2022/05/01 06:18:33;;;;;;;19.15;11.48;;;9.50;99.90;;;8.30;100.00;98063.63;5004071;28;20722;-72
2022/05/01 06:21:00;;;;;;;15.68;12.13;;;9.50;99.90;;;8.42;100.00;98066.81;4999598;28;20074;-72
2022/05/01 06:23:27;;;;;;;18.63;12.57;;;9.50;99.90;;;8.42;100.00;98057.31;5020745;28;20129;-71
2022/05/01 06:25:55;;;;;;;17.65;11.38;;;9.50;99.90;;;8.50;100.00;98063.13;4988338;28;20124;-72
2022/05/01 06:28:22;;;;;;;16.73;11.32;;;9.50;99.90;;;8.52;100.00;98073.44;4981371;28;20080;-71
2022/05/01 06:30:49;;;;;;;17.88;13.35;;;9.60;99.90;;;8.65;100.00;98069.63;4988654;28;20058;-71
2022/05/01 06:33:20;;;;;;;13.35;10.75;;;9.70;99.90;;;8.58;100.00;98071.53;5003030;28;20050;-73
2022/05/01 06:35:49;;;;;;;17.92;11.65;;;9.80;99.90;;;8.81;100.00;98071.81;4988354;28;20107;-71
2022/05/01 06:38:16;;;;;;;13.13;10.13;;;9.90;99.90;;;9.03;100.00;98066.88;5006287;28;20120;-71
2022/05/01 06:40:44;;;;;;;16.40;10.35;;;10.00;99.90;;;9.16;100.00;98066.47;5005646;28;20128;-72
2022/05/01 06:43:14;;;;;;;16.73;10.55;;;10.10;99.90;;;9.01;100.00;98061.75;5003117;28;20507;-71
2022/05/01 06:45:42;;;;;;;12.95;10.55;;;10.20;99.90;;;9.30;100.00;98068.66;4996981;28;20212;-72
2022/05/01 06:48:13;;;;;;;13.77;10.80;;;10.30;99.90;;;9.54;100.00;98067.06;4997818;28;20046;-71
2022/05/01 06:50:40;;;;;;;15.38;11.65;;;10.40;99.90;;;9.13;100.00;98065.72;5001096;28;20172;-73
2022/05/01 06:53:08;;;;;;;15.52;12.30;;;10.40;99.90;;;9.26;100.00;98063.59;5005767;28;20476;-72
2022/05/01 06:55:35;;;;;;;16.08;10.27;;;10.40;99.90;;;9.44;100.00;98065.66;4989231;28;20502;-72
2022/05/01 06:58:02;;;;;;;16.17;10.63;;;10.50;99.90;;;9.13;100.00;98060.53;5004448;28;20088;-72
2022/05/01 07:00:29;;;;;;;17.02;12.38;;;10.60;99.90;;;9.31;100.00;98065.19;5004872;28;20849;-72
2022/05/01 07:02:58;;;;;;;16.15;11.02;;;10.60;99.90;;;9.50;100.00;98059.44;5012268;28;20050;-72
2022/05/01 07:05:26;;;;;;;19.73;11.57;;;10.50;99.90;;;9.46;100.00;98057.84;5004631;28;20137;-70
2022/05/01 07:07:54;;;;;;;15.93;11.07;;;10.60;99.90;;;9.34;100.00;98056.47;4981580;28;20089;-70
2022/05/01 07:10:22;;;;;;;16.02;11.23;;;10.50;99.90;;;9.59;100.00;98053.97;5004142;28;20099;-69
2022/05/01 07:12:49;;;;;;;15.20;11.07;;;10.70;99.90;;;9.55;100.00;98055.81;5004713;28;20125;-70
2022/05/01 07:15:16;;;;;;;12.70;10.32;;;10.80;99.90;;;9.79;100.00;98061.97;4997308;28;20137;-70
2022/05/01 07:17:43;;;;;;;20.30;10.80;;;10.90;99.90;;;9.42;100.00;98049.31;4996133;28;20504;-72
2022/05/01 07:20:11;;;;;;;17.58;10.95;;;10.90;99.90;;;9.74;100.00;98050.91;4997514;28;20507;-72
2022/05/01 07:22:44;;;;;;;15.73;11.15;;;10.90;99.90;;;9.74;100.00;98050.03;4989592;28;20611;-72
2022/05/01 07:25:11;;;;;;;12.75;9.65;;;10.90;99.90;;;9.87;100.00;98050.50;4988991;28;20118;-72
2022/05/01 07:27:38;;;;;;;18.33;10.77;;;11.10;99.90;;;10.14;100.00;98040.97;5003067;28;20129;-72
2022/05/01 07:30:07;;;;;;;14.48;10.50;;;;;;;10.24;100.00;98043.22;5004439;28;20089;-72
2022/05/01 07:32:34;;;;;;;14.15;10.70;;;11.40;99.90;;;10.20;100.00;98036.44;4994333;28;20050;-72
2022/05/01 07:35:01;;;;;;;15.13;10.15;;;11.70;99.90;;;10.33;100.00;98041.22;4999292;28;20041;-70
2022/05/01 07:37:29;;;;;;;14.32;9.30;;;11.90;99.90;;;10.23;100.00;98038.06;4982621;28;20084;-72
2022/05/01 07:39:56;;;;;;;14.85;10.80;;;11.80;99.90;;;10.16;100.00;98034.00;5000650;28;20484;-72
2022/05/01 07:42:24;;;;;;;12.25;9.48;;;11.60;99.90;;;10.41;100.00;98040.06;5015100;28;20065;-70
2022/05/01 07:44:51;;;;;;;12.90;9.30;;;11.90;99.90;;;10.29;100.00;98034.47;5003344;28;20100;-72
2022/05/01 07:47:19;;;;;;;13.63;10.23;;;11.90;99.90;;;10.11;100.00;98031.56;4999025;28;20496;-72
2022/05/01 07:49:46;;;;;;;13.45;9.88;;;11.70;99.90;;;10.12;100.00;98040.19;5015934;28;20112;-71
2022/05/01 07:52:16;;;;;;;14.15;9.20;;;11.70;99.90;;;10.30;100.00;98031.81;5003384;28;20100;-71
2022/05/01 07:54:43;;;;;;;16.65;9.02;;;11.80;99.90;;;10.27;100.00;98032.72;5007968;28;20058;-72
2022/05/01 07:57:10;;;;;;;14.77;8.57;;;11.70;99.90;;;10.81;100.00;98028.28;5001236;28;20089;-72
2022/05/01 07:59:37;;;;;;;15.15;9.75;;;11.90;99.90;;;10.77;100.00;98023.28;5015106;28;20149;-72
2022/05/01 08:02:04;;;;;;;16.15;9.32;;;12.20;99.90;;;11.12;100.00;98016.75;5001942;28;20183;-72
2022/05/01 08:04:33;;;;;;;12.07;8.77;;;;;;;11.24;100.00;98015.44;5002070;28;20093;-72
2022/05/01 08:07:03;;;;;;;15.90;9.18;;;12.50;99.90;;;11.02;100.00;98018.84;5003737;28;20057;-73
2022/05/01 08:09:31;;;;;;;13.18;8.30;;;12.50;99.90;;;11.25;100.00;98023.19;4984999;28;20050;-72
2022/05/01 08:11:58;;;;;;;14.60;8.77;;;12.60;99.90;;;10.93;100.00;98015.75;4986357;28;20057;-72
2022/05/01 08:14:25;;;;;;;12.98;8.25;;;12.60;99.90;;;11.43;100.00;98021.63;5003765;28;20350;-71
2022/05/01 08:16:52;;;;;;;11.18;7.95;;;12.90;99.90;;;11.76;100.00;98017.75;4984188;28;20595;-72
2022/05/01 08:22:06;;;;;;;11.25;7.65;;;13.20;99.90;;;12.33;100.00;98009.31;5002211;28;20073;-71
2022/05/01 08:24:34;;;;;;;12.02;8.70;;;;;;;12.01;100.00;98018.47;5008549;28;20128;-71
2022/05/01 08:27:07;;;;;;;13.88;8.88;;;13.30;99.90;;;11.98;100.00;98025.56;4999787;28;20050;-72
2022/05/01 08:29:38;;;;;;;11.23;8.10;;;13.20;99.90;;;11.98;100.00;98022.97;5003448;28;20452;-71
2022/05/01 08:32:06;;;;;;;12.65;9.13;;;13.10;99.90;;;11.43;100.00;98024.22;5000252;28;20753;-71
2022/05/01 08:34:33;;;;;;;15.63;8.45;;;13.50;99.90;;;12.24;100.00;98012.31;4998974;28;20061;-69
2022/05/01 08:37:01;;;;;;;13.82;7.93;;;13.60;99.90;;;12.85;100.00;98015.75;5003388;28;20054;-70
2022/05/01 08:39:27;;;;;;;15.20;8.50;;;13.80;99.90;;;12.43;100.00;98024.53;5021613;28;20620;-69
2022/05/01 08:41:54;;;;;;;14.38;8.85;;;13.70;99.90;;;12.17;100.00;98012.63;5001489;28;20485;-70
2022/05/01 08:44:34;;;;;;;12.82;7.47;;;13.60;99.90;;;12.70;100.00;98019.88;4999099;28;20146;-70
2022/05/01 08:47:37;;;;;;;14.85;8.57;;;13.90;99.90;;;12.39;100.00;98017.78;4986193;28;20045;-70
2022/05/01 08:50:09;;;;;;;17.50;9.40;;;13.70;99.90;;;12.23;100.00;98015.00;4968315;28;20142;-71
2022/05/01 08:52:38;;;;;;;10.45;8.15;;;13.70;99.90;;;12.45;100.00;98010.56;5003966;28;20077;-69
2022/05/01 08:55:06;;;;;;;15.15;8.38;;;14.10;99.90;;;13.11;100.00;98014.56;5005839;28;20132;-72
2022/05/01 08:57:34;;;;;;;13.23;7.85;;;14.40;99.90;;;13.25;100.00;98016.53;5001823;28;20125;-70
2022/05/01 09:00:05;;;;;;;12.48;8.15;;;14.70;99.90;;;13.42;100.00;98015.81;4984405;28;20478;-68
2022/05/01 09:02:32;;;;;;;11.27;7.55;;;14.80;99.90;;;14.11;100.00;98013.28;4999557;28;20053;-69
2022/05/01 09:05:00;;;;;;;11.57;6.45;;;15.10;99.90;;;14.73;100.00;98003.19;5004332;28;20100;-70
2022/05/01 09:07:27;;;;;;;8.13;6.32;;;15.30;99.90;;;14.61;100.00;98001.22;4983071;28;20100;-70
2022/05/01 09:09:57;;;;;;;12.57;8.07;;;15.70;99.90;;;15.20;100.00;98001.56;4999298;28;20072;-73
2022/05/01 09:15:12;;;;;;;11.57;8.10;;;16.00;99.90;;;15.12;100.00;98007.25;4998356;28;20143;-69
2022/05/01 09:17:39;;;;;;;13.85;8.30;;;16.00;99.90;;;14.76;100.00;98007.44;4999838;28;20072;-68
2022/05/01 09:20:09;;;;;;;11.18;7.25;;;15.80;99.90;;;15.36;100.00;98007.66;5002169;28;20472;-70
2022/05/01 09:22:51;;;;;;;10.93;7.45;;;16.30;99.90;;;14.76;100.00;98012.66;4987505;28;22140;-72
2022/05/01 09:25:24;;;;;;;9.30;6.38;;;16.60;99.90;;;15.26;100.00;98009.94;5001056;28;20500;-69
2022/05/01 09:27:52;;;;;;;12.02;7.65;;;16.60;99.90;;;15.48;100.00;98013.97;5003410;28;20120;-70
2022/05/01 09:30:20;;;;;;;11.15;7.80;;;16.60;99.90;;;15.10;100.00;98011.69;5001928;28;20417;-70
2022/05/01 09:32:49;;;;;;;13.07;7.47;;;16.50;99.90;;;15.06;100.00;98018.00;4985186;28;20100;-69
2022/05/01 09:35:33;;;;;;;11.32;7.18;;;16.40;99.90;;;15.24;100.00;98017.03;4999494;28;20109;-69
2022/05/01 09:38:26;;;;;;;10.93;7.78;;;16.50;99.90;;;14.63;100.00;98025.50;5014333;28;20131;-69
2022/05/01 09:40:59;;;;;;;14.10;7.65;;;16.50;99.90;;;14.85;100.00;98022.63;5002847;28;20135;-69
2022/05/01 09:43:47;;;;;;;10.43;7.20;;;16.40;99.90;;;14.33;100.00;98023.50;5000098;28;20161;-70
2022/05/01 09:46:15;;;;;;;10.40;7.38;;;16.20;99.90;;;14.97;100.00;98016.72;4997478;28;20109;-69
2022/05/01 09:49:05;;;;;;;9.68;7.40;;;16.00;99.90;;;14.32;100.00;98020.97;4999228;28;20054;-69
2022/05/01 09:51:46;;;;;;;10.32;7.07;;;15.80;99.90;;;14.30;100.00;98021.06;4984482;28;20128;-69
2022/05/01 09:54:24;;;;;;;12.25;7.53;;;15.70;99.90;;;14.37;100.00;98017.22;5007424;28;20077;-70
2022/05/01 09:57:01;;;;;;;10.68;6.90;;;15.60;99.90;;;14.57;100.00;98008.41;5001534;28;20057;-70
2022/05/01 09:59:29;;;;;;;10.48;6.43;;;15.60;99.90;;;14.47;100.00;98022.81;5001936;28;20089;-69
2022/05/01 10:02:06;;;;;;;8.55;6.88;;;15.80;99.90;;;14.10;100.00;98022.06;4999549;28;20080;-69
2022/05/01 10:04:36;;;;;;;11.30;7.32;;;15.70;99.90;;;13.72;100.00;98022.16;4998816;28;20046;-72
2022/05/01 10:07:05;;;;;;;10.60;7.93;;;15.40;99.90;;;13.34;100.00;98022.22;4979614;28;20112;-72
2022/05/01 10:09:35;;;;;;;10.40;7.43;;;15.30;99.90;;;13.80;100.00;98025.25;5015908;28;20049;-71
2022/05/01 10:12:08;;;;;;;10.98;7.07;;;15.20;99.90;;;14.31;100.00;98027.13;4999766;28;20114;-72
2022/05/01 10:14:35;;;;;;;9.73;6.50;;;15.40;99.90;;;14.54;100.00;98013.75;4997870;28;20116;-71
2022/05/01 10:17:04;;;;;;;12.95;7.00;;;15.70;99.90;;;15.63;100.00;98010.50;4978852;28;20471;-70
2022/05/01 10:19:32;;;;;;;11.70;7.65;;;16.10;99.90;;;15.68;100.00;98005.84;4996733;28;20401;-71
2022/05/01 10:22:00;;;;;;;11.20;6.47;;;16.50;99.90;;;15.58;100.00;97996.00;5002979;28;20042;-71
2022/05/01 10:24:28;;;;;;;9.80;6.88;;;16.40;99.90;;;15.25;100.00;98005.63;5000995;28;20082;-72
2022/05/01 10:27:49;;;;;;;11.73;6.35;;;16.30;99.90;;;15.89;100.00;98002.97;4980590;28;20053;-70
2022/05/01 10:33:49;;;;;;;8.38;6.15;;;16.70;99.90;;;15.62;100.00;98002.72;5000427;28;20054;-71
2022/05/01 10:36:52;;;;;;;8.98;6.65;;;16.80;99.90;;;15.59;100.00;97995.06;5000888;28;20140;-72
2022/05/01 10:39:21;;;;;;;10.05;6.22;;;16.80;99.90;;;15.76;100.00;97996.75;5011121;28;20550;-71
2022/05/01 10:41:48;;;;;;;7.35;5.50;;;16.70;99.90;;;15.73;100.00;97999.56;4984035;28;20420;-72
2022/05/01 10:44:28;;;;;;;16.55;5.82;;;16.80;99.90;;;15.74;100.00;97990.78;4999981;28;20453;-71
2022/05/01 10:47:05;;;;;;;8.30;5.55;;;16.80;99.90;;;15.46;100.00;97997.50;4984751;28;20510;-71
2022/05/01 10:49:38;;;;;;;9.32;5.85;;;16.90;99.90;;;15.52;100.00;97993.72;4983396;28;20082;-72
2022/05/01 10:52:22;;;;;;;11.10;6.70;;;17.00;99.90;;;15.42;100.00;97982.94;5016751;28;20574;-71
2022/05/01 10:55:05;;;;;;;7.13;4.32;;;17.10;99.90;;;16.16;100.00;97981.38;5014076;28;20576;-71
2022/05/01 10:57:32;;;;;;;10.85;7.45;;;17.30;99.90;;;16.06;100.00;97971.44;4983359;28;20137;-71
2022/05/01 11:00:15;;;;;;;7.28;5.50;;;17.20;99.90;;;16.66;100.00;97973.09;5000023;28;20073;-72
2022/05/01 11:02:46;;;;;;;;;;;17.50;99.90;;;17.27;100.00;97971.09;4985019;28;20454;-71